Terminal Aerodrome Forecast
Issued by NWS

Home | Current Version | Previous Version | Text Only | Print | Product List | Glossary On
Versions: 1 2 3 4 5 6 7 8 9 10 11 12 13
751
FTUS45 KTFX 250520
TAFHLN
TAF
KHLN 250520Z 2506/2606 VRB06KT P6SM SCT080 SCT180
     FM252100 26007KT P6SM BKN080 BKN140=

USA.gov is the U.S. government's official web portal to all federal, state and local government web resources and services.